createdAt,value
2022-08-07T00:00:40.050Z,1.27
2022-08-07T00:03:09.060Z,1.27
2022-08-07T00:05:39.132Z,1.50
2022-08-07T00:08:08.057Z,1.30
2022-08-07T00:10:47.775Z,1.27
2022-08-07T00:13:26.645Z,1.20
2022-08-07T00:15:56.021Z,1.20
2022-08-07T00:18:27.604Z,1.55
2022-08-07T00:21:01.380Z,1.10
2022-08-07T00:23:31.653Z,1.15
2022-08-07T00:26:06.955Z,1.40
2022-08-07T00:28:46.180Z,1.20
2022-08-07T00:31:37.524Z,1.35
2022-08-07T00:34:08.981Z,1.17
2022-08-07T00:36:43.118Z,1.45
2022-08-07T00:39:16.437Z,1.20
2022-08-07T00:42:02.546Z,1.75
2022-08-07T00:44:33.943Z,1.00
2022-08-07T00:47:02.269Z,1.40
2022-08-07T00:50:20.737Z,1.30
2022-08-07T00:52:20.283Z,1.10
2022-08-07T00:54:53.962Z,1.20
2022-08-07T00:57:25.187Z,1.38
2022-08-07T00:59:54.247Z,1.20
2022-08-07T01:02:28.638Z,1.20
2022-08-07T01:04:59.310Z,1.40
2022-08-07T01:07:31.103Z,1.20
2022-08-07T01:10:06.968Z,1.55
2022-08-07T01:12:53.723Z,1.10
2022-08-07T01:15:36.120Z,1.10
2022-08-07T01:18:17.722Z,1.27
2022-08-07T01:20:59.758Z,1.30
2022-08-07T01:23:35.453Z,1.30
2022-08-07T01:26:12.001Z,1.00
2022-08-07T01:28:45.971Z,1.30
2022-08-07T01:31:17.961Z,1.20
2022-08-07T01:33:56.141Z,1.43
2022-08-07T01:36:33.833Z,1.10
2022-08-07T01:39:11.000Z,1.10
2022-08-07T01:42:00.477Z,1.07
2022-08-07T01:44:33.840Z,1.23
2022-08-07T01:47:14.608Z,1.13
2022-08-07T01:49:54.843Z,1.50
2022-08-07T01:52:29.656Z,1.25
2022-08-07T01:55:03.877Z,1.30
2022-08-07T01:58:01.660Z,1.57
2022-08-07T02:00:32.835Z,1.30
2022-08-07T02:03:11.895Z,1.20
2022-08-07T02:06:00.072Z,1.33
2022-08-07T02:08:54.282Z,1.40
2022-08-07T02:11:31.097Z,1.40
2022-08-07T02:14:40.493Z,1.40
2022-08-07T02:17:24.722Z,1.40
2022-08-07T02:20:06.751Z,1.40
2022-08-07T02:22:41.581Z,1.33
2022-08-07T02:25:18.201Z,1.40
2022-08-07T02:28:01.489Z,1.23
2022-08-07T02:30:37.700Z,1.43
2022-08-07T02:33:09.506Z,1.33
2022-08-07T02:36:29.723Z,1.50
2022-08-07T02:38:38.878Z,1.40
2022-08-07T02:41:10.690Z,1.30
2022-08-07T02:43:48.930Z,1.40
2022-08-07T02:46:22.793Z,1.60
2022-08-07T02:48:56.889Z,1.43
2022-08-07T02:51:42.302Z,1.30
2022-08-07T02:54:14.353Z,1.30
2022-08-07T02:57:01.357Z,1.60
2022-08-07T02:59:38.749Z,1.40
2022-08-07T03:02:12.159Z,1.43
2022-08-07T03:04:42.381Z,1.40
2022-08-07T03:07:18.331Z,1.20
2022-08-07T03:10:08.784Z,1.20
2022-08-07T03:12:39.486Z,1.40
2022-08-07T03:15:15.353Z,1.40
2022-08-07T03:18:09.107Z,1.30
2022-08-07T03:20:39.473Z,1.40
2022-08-07T03:25:58.511Z,1.33
2022-08-07T03:28:37.318Z,1.33
2022-08-07T03:31:42.087Z,1.60
2022-08-07T03:34:27.395Z,1.33
2022-08-07T03:37:11.894Z,1.30
2022-08-07T03:40:13.099Z,1.43
2022-08-07T03:42:42.683Z,1.50
2022-08-07T03:45:29.776Z,1.43
2022-08-07T03:48:04.893Z,1.60
2022-08-07T03:54:05.994Z,1.23
2022-08-07T03:57:08.407Z,1.20
2022-08-07T04:00:01.900Z,1.30
2022-08-07T04:02:49.478Z,1.40
2022-08-07T04:06:37.477Z,1.50
2022-08-07T04:25:11.851Z,1.43
2022-08-07T04:31:09.701Z,1.30
2022-08-07T04:33:55.088Z,1.40
2022-08-07T04:37:23.142Z,1.23
2022-08-07T04:40:22.263Z,1.50
2022-08-07T04:44:14.486Z,1.70
2022-08-07T06:14:13.094Z,1.00
2022-08-07T06:26:01.656Z,1.10
2022-08-07T06:28:32.019Z,0.98
2022-08-07T06:31:00.394Z,1.10
2022-08-07T06:33:30.025Z,1.00
2022-08-07T06:36:13.415Z,1.00
2022-08-07T06:38:58.835Z,0.80
2022-08-07T06:42:01.138Z,1.00
2022-08-07T06:44:51.165Z,0.90
2022-08-07T06:47:21.117Z,0.88
2022-08-07T06:49:52.377Z,1.10
2022-08-07T06:52:36.485Z,0.88
2022-08-07T06:55:33.828Z,1.10
2022-08-07T06:58:04.733Z,0.90
2022-08-07T07:00:43.888Z,0.93
2022-08-07T07:03:17.104Z,1.13
2022-08-07T07:06:04.188Z,0.98
2022-08-07T07:08:35.933Z,0.70
2022-08-07T07:11:14.544Z,1.00
2022-08-07T07:14:01.592Z,0.90
2022-08-07T07:16:39.205Z,0.93
2022-08-07T07:19:55.225Z,0.73
2022-08-07T07:22:32.270Z,0.60
2022-08-07T07:25:13.936Z,0.77
2022-08-07T07:27:56.092Z,0.80
2022-08-07T07:30:38.299Z,0.70
2022-08-07T07:33:11.880Z,0.70
2022-08-07T07:36:04.442Z,0.68
2022-08-07T07:38:33.511Z,0.55
2022-08-07T07:41:05.574Z,0.60
2022-08-07T07:43:48.199Z,0.70
2022-08-07T07:46:38.504Z,0.60
2022-08-07T07:50:35.391Z,0.68
2022-08-07T07:52:12.761Z,0.63
2022-08-07T07:54:44.209Z,0.47
2022-08-07T07:57:51.539Z,0.50
2022-08-07T08:00:21.076Z,0.70
2022-08-07T08:03:04.645Z,0.82
2022-08-07T08:05:51.050Z,0.60
2022-08-07T08:08:34.741Z,0.80
2022-08-07T08:11:08.030Z,0.77
2022-08-07T08:13:53.171Z,0.52
2022-08-07T08:16:30.096Z,0.10
2022-08-07T08:19:09.890Z,0.63
2022-08-07T08:22:07.866Z,0.70
2022-08-07T08:25:18.615Z,0.80
2022-08-07T08:27:55.985Z,0.50
2022-08-07T08:30:26.696Z,0.50
2022-08-07T08:33:00.641Z,0.45
2022-08-07T08:35:43.125Z,0.73
2022-08-07T08:38:17.766Z,0.80
2022-08-07T08:40:55.588Z,0.73
2022-08-07T08:43:42.820Z,0.57
2022-08-07T08:46:29.592Z,0.80
2022-08-07T08:49:08.077Z,0.70
2022-08-07T08:52:00.910Z,0.65
2022-08-07T08:54:39.959Z,0.40
2022-08-07T08:57:16.353Z,0.85
2022-08-07T08:59:51.760Z,0.60
2022-08-07T09:02:35.029Z,0.60
2022-08-07T09:05:22.506Z,0.47
2022-08-07T09:08:02.630Z,0.90
2022-08-07T09:10:44.903Z,0.60
2022-08-07T09:13:37.919Z,0.55
2022-08-07T09:16:24.059Z,0.50
2022-08-07T09:19:51.418Z,0.73
2022-08-07T09:24:30.510Z,0.40
2022-08-07T09:25:18.145Z,0.77
2022-08-07T09:28:00.987Z,0.77
2022-08-07T09:30:44.155Z,0.60
2022-08-07T09:33:52.985Z,0.70
2022-08-07T09:36:22.479Z,0.63
2022-08-07T09:39:27.490Z,0.60
2022-08-07T09:42:17.017Z,0.70
2022-08-07T09:47:23.588Z,0.50
2022-08-07T09:48:12.204Z,0.60
2022-08-07T09:50:55.346Z,0.63
2022-08-07T09:53:25.736Z,0.28
2022-08-07T09:56:39.277Z,0.40
2022-08-07T09:59:44.599Z,0.50
2022-08-07T10:02:35.724Z,0.70
2022-08-07T10:05:21.677Z,0.45
2022-08-07T10:08:27.820Z,0.40
2022-08-07T10:11:16.741Z,0.35
2022-08-07T10:14:06.881Z,0.45
2022-08-07T10:17:14.299Z,0.50
2022-08-07T10:20:00.651Z,0.50
2022-08-07T10:22:58.708Z,0.80
2022-08-07T10:25:42.779Z,0.47
2022-08-07T10:28:39.076Z,0.63
2022-08-07T10:31:31.505Z,0.63
2022-08-07T10:34:31.737Z,0.90
2022-08-07T10:37:14.903Z,0.45
2022-08-07T10:40:05.730Z,0.60
2022-08-07T10:42:41.027Z,0.50
2022-08-07T10:45:44.089Z,0.60
2022-08-07T10:48:35.015Z,0.60
2022-08-07T10:51:16.664Z,0.60
2022-08-07T10:54:07.837Z,0.50
2022-08-07T10:56:47.399Z,0.50
2022-08-07T10:59:25.783Z,0.43
2022-08-07T11:02:11.883Z,0.65
2022-08-07T11:05:00.060Z,0.57
2022-08-07T11:07:58.507Z,0.63
2022-08-07T11:10:37.249Z,0.57
2022-08-07T11:14:41.748Z,0.60
2022-08-07T11:16:09.246Z,0.55
2022-08-07T11:18:43.730Z,0.52
2022-08-07T11:21:42.805Z,0.57
2022-08-07T11:24:21.505Z,0.43
2022-08-07T11:27:00.351Z,0.40
2022-08-07T11:29:42.896Z,0.68
2022-08-07T11:32:25.951Z,0.80
2022-08-07T11:35:00.027Z,0.70
2022-08-07T11:37:58.398Z,0.77
2022-08-07T11:40:45.315Z,0.77
2022-08-07T11:43:29.801Z,0.68
2022-08-07T11:46:26.544Z,0.55
2022-08-07T11:49:50.885Z,0.57
2022-08-07T11:52:07.773Z,0.47
2022-08-07T11:54:54.937Z,0.88
2022-08-07T11:57:57.723Z,0.57
2022-08-07T12:00:32.036Z,0.55
2022-08-07T12:03:46.033Z,1.10
2022-08-07T12:07:00.980Z,0.70
2022-08-07T12:26:02.933Z,0.68
2022-08-07T12:28:31.225Z,0.85
2022-08-07T12:31:17.369Z,0.73
2022-08-07T12:34:01.813Z,0.60
2022-08-07T12:49:25.718Z,0.50
2022-08-07T12:52:27.478Z,0.70
2022-08-07T12:55:16.590Z,0.45
2022-08-07T12:58:14.714Z,0.50
2022-08-07T13:00:56.824Z,0.70
2022-08-07T13:04:01.953Z,0.77
2022-08-07T13:07:06.501Z,0.63
2022-08-07T13:10:29.302Z,0.70
2022-08-07T13:13:48.134Z,0.55
2022-08-07T13:16:36.632Z,0.65
2022-08-07T13:22:32.235Z,0.52
2022-08-07T13:25:29.809Z,0.88
2022-08-07T13:28:23.960Z,0.55
2022-08-07T13:37:38.316Z,0.50
2022-08-07T13:40:36.578Z,1.05
2022-08-07T13:43:21.640Z,0.82
2022-08-07T13:46:24.915Z,0.70
2022-08-07T13:50:33.522Z,0.50
2022-08-07T13:52:22.490Z,0.70
2022-08-07T13:55:06.470Z,0.57
2022-08-07T13:57:59.048Z,0.50
2022-08-07T14:00:50.366Z,0.88
2022-08-07T14:04:05.104Z,0.80
2022-08-07T14:06:22.101Z,0.60
2022-08-07T14:09:07.514Z,0.57
2022-08-07T14:12:11.937Z,0.63
2022-08-07T14:14:50.236Z,0.88
2022-08-07T14:18:12.833Z,0.68
2022-08-07T14:20:42.029Z,0.60
2022-08-07T14:23:31.728Z,0.60
2022-08-07T14:26:23.672Z,0.60
2022-08-07T14:29:08.754Z,0.50
2022-08-07T14:31:56.244Z,0.77
2022-08-07T14:34:30.869Z,0.50
2022-08-07T14:37:01.995Z,0.57
2022-08-07T14:40:17.032Z,0.68
2022-08-07T14:42:32.503Z,0.77
2022-08-07T14:45:21.678Z,0.40
2022-08-07T14:47:51.348Z,0.70
2022-08-07T14:50:28.016Z,0.55
2022-08-07T14:53:07.630Z,0.50
2022-08-07T14:58:32.577Z,0.70
2022-08-07T15:01:07.532Z,0.50
2022-08-07T15:03:53.357Z,0.40
2022-08-07T15:06:25.942Z,0.47
2022-08-07T15:08:56.044Z,0.40
2022-08-07T15:14:21.110Z,0.60
2022-08-07T15:20:33.927Z,0.60
2022-08-07T15:22:51.673Z,0.70
2022-08-07T15:25:25.810Z,0.40
2022-08-07T15:28:34.697Z,1.08
2022-08-07T15:31:06.414Z,1.02
2022-08-07T15:33:42.537Z,0.77
2022-08-07T15:36:12.074Z,0.70
2022-08-07T15:38:51.773Z,0.50
2022-08-07T15:42:42.523Z,0.77
2022-08-07T15:44:24.109Z,0.70
2022-08-07T15:46:58.523Z,0.52
2022-08-07T15:50:05.069Z,0.80
2022-08-07T15:52:29.705Z,0.57
2022-08-07T15:55:03.493Z,0.98
2022-08-07T15:57:47.603Z,0.40
2022-08-07T16:00:31.788Z,0.82
2022-08-07T16:03:20.908Z,0.98
2022-08-07T16:05:54.113Z,0.68
2022-08-07T16:08:31.420Z,0.52
2022-08-07T16:11:26.815Z,0.50
2022-08-07T16:14:12.798Z,0.65
2022-08-07T16:16:57.331Z,0.77
2022-08-07T16:19:58.876Z,0.50
2022-08-07T16:22:54.464Z,1.08
2022-08-07T16:25:55.529Z,0.50
2022-08-07T16:30:05.887Z,0.70
2022-08-07T16:31:57.757Z,0.90
2022-08-07T16:34:48.430Z,0.70
2022-08-07T16:38:04.502Z,0.70
2022-08-07T16:41:11.025Z,0.47
2022-08-07T16:44:03.860Z,0.68
2022-08-07T16:47:16.732Z,0.65
2022-08-07T16:50:35.887Z,0.60
2022-08-07T16:54:01.712Z,0.60
2022-08-07T16:56:41.070Z,0.60
2022-08-07T16:59:20.132Z,0.60
2022-08-07T17:02:03.858Z,0.68
2022-08-07T17:04:57.719Z,0.50
2022-08-07T17:07:55.743Z,0.65
2022-08-07T17:10:34.173Z,0.57
2022-08-07T17:14:17.365Z,0.60
2022-08-07T17:16:43.839Z,0.77
2022-08-07T17:20:00.394Z,0.60
2022-08-07T17:22:16.467Z,0.73
2022-08-07T17:25:00.166Z,0.70
2022-08-07T17:27:51.256Z,0.98
2022-08-07T17:30:26.625Z,0.70
2022-08-07T17:34:08.677Z,0.63
2022-08-07T17:36:13.478Z,1.00
2022-08-07T17:38:56.127Z,0.65
2022-08-07T17:42:04.761Z,0.70
2022-08-07T17:44:45.307Z,0.70
2022-08-07T17:47:38.063Z,0.82
2022-08-07T17:50:19.379Z,0.70
2022-08-07T17:52:55.260Z,0.52
2022-08-07T17:55:55.652Z,0.63
2022-08-07T17:58:30.405Z,0.68
2022-08-07T18:01:20.942Z,0.60
2022-08-07T18:04:07.041Z,0.73
2022-08-07T18:06:44.783Z,0.90
2022-08-07T18:10:06.794Z,0.80
2022-08-07T18:12:30.464Z,0.80
2022-08-07T18:15:08.504Z,0.60
2022-08-07T18:18:47.270Z,0.80
2022-08-07T18:21:07.324Z,0.75
2022-08-07T18:23:42.586Z,0.82
2022-08-07T18:26:19.536Z,0.90
2022-08-07T18:30:04.263Z,1.20
2022-08-07T18:32:08.811Z,1.00
2022-08-07T18:35:00.901Z,0.98
2022-08-07T18:38:55.947Z,0.90
2022-08-07T18:40:56.170Z,0.77
2022-08-07T18:43:49.231Z,1.00
2022-08-07T18:46:27.162Z,1.20
2022-08-07T18:50:30.573Z,2.58
2022-08-07T18:52:33.416Z,1.17
2022-08-07T18:54:54.919Z,1.17
2022-08-07T18:57:43.926Z,1.00
2022-08-07T19:00:42.475Z,0.98
2022-08-07T19:03:35.604Z,1.00
2022-08-07T19:06:16.753Z,1.05
2022-08-07T19:08:58.634Z,1.00
2022-08-07T19:12:05.065Z,0.98
2022-08-07T19:14:53.400Z,0.90
2022-08-07T19:17:55.726Z,1.02
2022-08-07T19:20:33.767Z,0.80
2022-08-07T19:23:17.908Z,0.98
2022-08-07T19:26:23.263Z,0.90
2022-08-07T19:30:55.365Z,0.90
2022-08-07T19:32:11.553Z,0.85
2022-08-07T19:34:32.756Z,1.08
2022-08-07T19:37:10.274Z,1.05
2022-08-07T19:39:57.455Z,0.80
2022-08-07T19:42:39.999Z,0.80
2022-08-07T19:46:06.155Z,0.70
2022-08-07T19:48:03.337Z,0.80
2022-08-07T19:50:44.552Z,0.70
2022-08-07T19:54:33.334Z,0.85
2022-08-07T19:56:15.152Z,0.80
2022-08-07T19:58:59.207Z,0.60
2022-08-07T20:01:53.002Z,0.63
2022-08-07T20:04:32.218Z,0.52
2022-08-07T20:07:10.203Z,1.00
2022-08-07T20:10:36.759Z,0.90
2022-08-07T20:12:35.922Z,0.70
2022-08-07T20:15:09.775Z,1.00
2022-08-07T20:18:01.455Z,0.85
2022-08-07T20:20:34.683Z,0.85
2022-08-07T20:23:23.014Z,0.70
2022-08-07T20:25:57.264Z,0.70
2022-08-07T20:28:29.967Z,0.90
2022-08-07T20:31:00.046Z,0.90
2022-08-07T20:33:38.028Z,0.70
2022-08-07T20:36:10.696Z,0.82
2022-08-07T20:38:59.421Z,0.90
2022-08-07T20:41:34.241Z,0.85
2022-08-07T20:44:11.118Z,1.05
2022-08-07T20:46:44.303Z,0.80
2022-08-07T20:49:59.477Z,0.68
2022-08-07T20:52:16.520Z,1.10
2022-08-07T20:54:53.326Z,0.80
2022-08-07T20:57:24.629Z,0.95
2022-08-07T21:00:08.015Z,0.95
2022-08-07T21:02:58.963Z,0.90
2022-08-07T21:05:52.915Z,0.77
2022-08-07T21:08:37.530Z,0.73
2022-08-07T21:11:12.387Z,0.80
2022-08-07T21:14:29.803Z,1.00
2022-08-07T21:16:55.910Z,0.80
2022-08-07T21:19:32.245Z,0.80
2022-08-07T21:22:19.547Z,1.10
2022-08-07T21:25:04.710Z,0.90
2022-08-07T21:27:53.833Z,1.00
2022-08-07T21:30:30.098Z,1.00
2022-08-07T21:33:07.912Z,0.80
2022-08-07T21:36:06.627Z,0.80
2022-08-07T21:38:31.315Z,1.10
2022-08-07T21:41:11.032Z,1.10
2022-08-07T21:43:55.327Z,0.88
2022-08-07T21:46:32.283Z,1.17
2022-08-07T21:49:14.791Z,1.00
2022-08-07T21:51:54.856Z,0.93
2022-08-07T21:54:31.481Z,0.90
2022-08-07T21:57:11.099Z,0.90
2022-08-07T22:00:06.185Z,0.93
2022-08-07T22:02:44.240Z,0.85
2022-08-07T22:05:44.844Z,1.10
2022-08-07T22:08:06.475Z,1.00
2022-08-07T22:10:42.330Z,0.98
2022-08-07T22:13:15.762Z,0.82
2022-08-07T22:16:42.502Z,1.10
2022-08-07T22:18:43.236Z,0.90
2022-08-07T22:21:19.325Z,0.90
2022-08-07T22:23:53.594Z,0.70
2022-08-07T22:26:25.019Z,0.88
2022-08-07T22:29:04.778Z,1.02
2022-08-07T22:31:59.425Z,0.90
2022-08-07T22:34:53.489Z,0.95
2022-08-07T22:38:03.286Z,0.98
2022-08-07T22:40:27.814Z,0.95
2022-08-07T22:43:03.718Z,1.23
2022-08-07T22:46:04.796Z,1.10
2022-08-07T22:49:12.789Z,1.17
2022-08-07T22:51:52.313Z,0.98
2022-08-07T22:54:37.944Z,1.02
2022-08-07T22:57:17.102Z,1.10
2022-08-07T23:07:58.939Z,0.82
2022-08-07T23:10:42.079Z,1.00
2022-08-07T23:13:29.355Z,1.00
2022-08-07T23:16:46.667Z,1.20
2022-08-07T23:19:52.027Z,1.05
2022-08-07T23:22:37.733Z,1.25
2022-08-07T23:28:56.443Z,1.20
2022-08-07T23:34:56.624Z,1.08
2022-08-07T23:38:01.503Z,0.82
2022-08-07T23:40:49.374Z,1.02
2022-08-07T23:43:55.904Z,1.20
2022-08-07T23:46:48.260Z,1.25
2022-08-07T23:49:50.067Z,1.20
2022-08-07T23:53:00.073Z,1.13
2022-08-07T23:55:53.420Z,0.90
2022-08-07T23:58:25.078Z,1.00
